Time;durP1;ratioP1;P1;durP2;ratioP2;P2;SDS_P1;SDS_P2;PMS_P1;PMS_P2;Temp;Humidity;BMP_temperature;BMP_pressure;BME280_temperature;BME280_humidity;BME280_pressure;Samples;Min_cycle;Max_cycle;Signal;HPM_P1;HPM_P2
2022/08/09 00:01:30;;;;;;;8.82;3.95;;;;;;;26.15;49.51;99781.91;5079365;28;20104;-73
2022/08/09 00:03:56;;;;;;;8.52;4.50;;;;;;;26.18;48.98;99784.09;5080482;28;20067;-73
2022/08/09 00:06:22;;;;;;;9.85;4.18;;;;;;;26.18;49.06;99784.09;5080239;28;20326;-73
2022/08/09 00:08:49;;;;;;;7.05;4.20;;;;;;;26.23;48.46;99786.84;5077566;28;20032;-72
2022/08/09 00:11:18;;;;;;;5.15;3.50;;;;;;;26.11;48.20;99781.63;5080913;28;20044;-72
2022/08/09 00:13:44;;;;;;;6.32;3.60;;;;;;;26.08;47.98;99780.25;5079066;28;20033;-72
2022/08/09 00:16:10;;;;;;;8.55;4.20;;;;;;;26.13;47.37;99782.16;5078488;28;20028;-73
2022/08/09 00:18:36;;;;;;;6.28;3.70;;;;;;;26.14;46.90;99781.09;5078646;28;20043;-73
2022/08/09 00:21:04;;;;;;;11.63;4.20;;;;;;;26.18;46.96;99778.66;5076726;28;20036;-72
2022/08/09 00:23:30;;;;;;;15.50;4.22;;;;;;;26.19;46.73;99777.59;5079751;28;20182;-73
2022/08/09 00:25:56;;;;;;;10.05;4.07;;;;;;;26.17;47.49;99774.31;5076495;28;20036;-72
2022/08/09 00:28:22;;;;;;;13.88;4.40;;;;;;;26.07;48.07;99770.47;5079654;28;20213;-72
2022/08/09 00:30:49;;;;;;;8.60;4.70;;;;;;;26.04;49.12;99775.59;5080175;28;20025;-73
2022/08/09 00:33:14;;;;;;;13.45;4.45;;;;;;;25.96;50.05;99774.19;5084480;28;20030;-72
2022/08/09 00:35:40;;;;;;;13.10;5.65;;;;;;;25.96;50.04;99774.19;5081945;28;20632;-72
2022/08/09 00:38:08;;;;;;;10.88;5.07;;;;;;;25.85;51.61;99772.47;5083108;28;20028;-73
2022/08/09 00:40:34;;;;;;;11.25;5.68;;;;;;;25.88;51.63;99776.56;5083021;28;20543;-72
2022/08/09 00:43:00;;;;;;;7.22;4.95;;;;;;;25.76;52.12;99763.19;5083641;28;20207;-72
2022/08/09 00:45:25;;;;;;;9.77;4.53;;;;;;;25.75;52.79;99777.84;5082517;28;20086;-72
2022/08/09 00:47:51;;;;;;;10.57;4.85;;;;;;;25.67;53.39;99776.44;5082822;28;20024;-72
2022/08/09 00:50:17;;;;;;;7.88;5.05;;;;;;;25.54;53.51;99776.03;5083694;28;20055;-72
2022/08/09 00:52:42;;;;;;;8.50;4.90;;;;;;;25.40;53.62;99776.44;5083095;28;20175;-73
2022/08/09 00:55:09;;;;;;;11.55;5.68;;;;;;;25.41;53.20;99774.56;5080651;28;20090;-72
2022/08/09 00:57:34;;;;;;;10.55;5.35;;;;;;;25.37;53.83;99781.56;5078126;28;20055;-72
2022/08/09 01:00:00;;;;;;;13.85;4.93;;;;;;;25.42;53.71;99781.63;5083366;28;20091;-72
2022/08/09 01:02:29;;;;;;;10.38;5.68;;;;;;;25.40;53.54;99791.91;5081190;28;20033;-72
2022/08/09 01:05:08;;;;;;;12.98;5.45;;;;;;;25.38;53.44;99777.78;5082950;28;20218;-73
2022/08/09 01:07:56;;;;;;;11.25;5.63;;;;;;;25.29;53.50;99782.03;5082307;28;20036;-72
2022/08/09 01:10:30;;;;;;;8.90;5.30;;;;;;;25.29;53.37;99782.88;5074503;28;20029;-72
2022/08/09 01:13:08;;;;;;;10.13;5.22;;;;;;;25.11;54.48;99789.47;5079793;28;20027;-73
2022/08/09 01:15:42;;;;;;;11.15;5.10;;;;;;;25.07;54.75;99788.34;5082150;28;20039;-73
2022/08/09 01:18:12;;;;;;;10.82;5.63;;;;;;;25.11;54.30;99789.47;5080486;28;20280;-72
2022/08/09 01:21:05;;;;;;;11.07;5.60;;;;;;;25.17;53.85;99793.03;5081207;28;20322;-72
2022/08/09 01:23:31;;;;;;;10.32;5.68;;;;;;;24.62;55.45;99794.03;5079676;28;20044;-73
2022/08/09 01:26:13;;;;;;;7.97;5.45;;;;;;;24.24;57.08;99789.44;5084089;28;20033;-72
2022/08/09 01:28:43;;;;;;;12.68;6.22;;;;;;;24.22;57.99;99798.88;5079281;28;20306;-72
2022/08/09 01:31:14;;;;;;;10.00;5.95;;;;;;;24.10;58.64;99793.59;5080105;28;20036;-72
2022/08/09 01:33:43;;;;;;;12.57;6.15;;;;;;;24.15;59.18;99801.78;5083067;28;20036;-72
2022/08/09 01:36:16;;;;;;;14.18;6.10;;;;;;;24.05;60.03;99801.63;5082448;28;20049;-72
2022/08/09 01:38:46;;;;;;;11.98;6.18;;;;;;;23.78;61.63;99794.19;5079711;28;20051;-72
2022/08/09 01:41:17;;;;;;;10.95;6.55;;;;;;;23.70;62.25;99788.38;5079651;28;20083;-72
2022/08/09 01:43:49;;;;;;;9.40;6.10;;;;;;;23.70;62.39;99789.19;5081958;28;20048;-72
2022/08/09 01:46:17;;;;;;;9.75;6.35;;;;;;;23.53;62.33;99783.75;5099842;28;20243;-72
2022/08/09 01:48:46;;;;;;;13.73;6.60;;;;;;;23.67;61.71;99776.16;5080844;28;20044;-72
2022/08/09 01:51:14;;;;;;;13.75;6.35;;;;;;;23.68;62.15;99785.91;5082476;28;20064;-72
2022/08/09 01:53:42;;;;;;;11.43;6.60;;;;;;;23.72;62.40;99787.06;5081235;28;20028;-72
2022/08/09 01:56:10;;;;;;;12.43;6.40;;;;;;;23.99;61.14;99781.81;5081579;28;20048;-72
2022/08/09 01:58:37;;;;;;;9.63;6.68;;;;;;;23.96;61.20;99782.31;5079027;28;20237;-72
2022/08/09 02:01:04;;;;;;;15.45;6.60;;;;;;;23.96;60.99;99770.66;5081782;28;20040;-72
2022/08/09 02:03:32;;;;;;;10.98;6.60;;;;;;;23.99;61.02;99768.28;5078977;28;20064;-72
2022/08/09 02:06:00;;;;;;;12.00;6.60;;;;;;;24.00;60.88;99771.81;5080026;28;20039;-72
2022/08/09 02:08:28;;;;;;;14.10;6.13;;;;;;;23.93;60.99;99771.97;5082808;28;20062;-73
2022/08/09 02:10:55;;;;;;;10.32;6.05;;;;;;;24.06;59.26;99773.50;5080292;28;20089;-72
2022/08/09 02:13:23;;;;;;;11.20;6.35;;;;;;;23.96;58.71;99767.97;5079777;28;20036;-72
2022/08/09 02:15:51;;;;;;;12.95;6.38;;;;;;;23.92;58.34;99770.31;5082065;28;20036;-72
2022/08/09 02:18:22;;;;;;;13.93;6.57;;;;;;;23.76;58.51;99769.28;5081871;28;20032;-73
2022/08/09 02:20:54;;;;;;;10.80;6.40;;;;;;;23.76;58.35;99771.97;5079103;28;20214;-72
2022/08/09 02:23:35;;;;;;;13.48;7.20;;;;;;;23.81;57.96;99774.75;5077310;28;20042;-72
2022/08/09 02:26:03;;;;;;;13.65;6.72;;;;;;;23.74;58.15;99765.19;5075852;28;20040;-72
2022/08/09 02:28:36;;;;;;;13.55;7.20;;;;;;;23.54;58.71;99771.91;5080571;28;20067;-72
2022/08/09 02:31:11;;;;;;;16.10;6.28;;;;;;;23.70;58.22;99767.56;5079576;28;20056;-72
2022/08/09 02:33:42;;;;;;;13.35;6.63;;;;;;;23.66;58.06;99763.72;5079027;28;20317;-72
2022/08/09 02:36:14;;;;;;;11.98;6.05;;;;;;;23.59;58.22;99764.94;5078716;28;20114;-72
2022/08/09 02:38:51;;;;;;;15.55;6.97;;;;;;;23.60;58.23;99766.59;5079833;28;20392;-72
2022/08/09 02:41:23;;;;;;;12.50;6.80;;;;;;;23.51;58.75;99771.53;5080224;28;20279;-72
2022/08/09 02:43:52;;;;;;;13.60;6.53;;;;;;;23.41;59.16;99772.19;5077257;28;20029;-72
2022/08/09 02:46:18;;;;;;;13.85;7.30;;;;;;;23.07;60.05;99784.84;5078607;28;20037;-72
2022/08/09 02:48:45;;;;;;;13.70;7.20;;;;;;;23.00;60.55;99780.66;5080655;28;20253;-73
2022/08/09 02:51:16;;;;;;;11.40;7.00;;;;;;;23.15;60.34;99789.03;5079954;28;20040;-72
2022/08/09 02:53:47;;;;;;;11.18;6.53;;;;;;;22.78;61.38;99792.06;5080649;28;20379;-72
2022/08/09 02:56:16;;;;;;;11.77;7.18;;;;;;;22.70;61.41;99788.94;5080534;28;20077;-72
2022/08/09 02:58:43;;;;;;;13.30;7.22;;;;;;;22.97;60.58;99787.38;5078223;28;20054;-72
2022/08/09 03:01:09;;;;;;;12.68;7.43;;;;;;;23.09;60.18;99782.72;5079509;28;20047;-72
2022/08/09 03:03:37;;;;;;;13.82;7.18;;;;;;;23.00;60.68;99786.88;5080363;28;20020;-72
2022/08/09 03:06:05;;;;;;;14.30;8.02;;;;;;;22.95;60.81;99794.06;5080701;28;20379;-72
2022/08/09 03:08:32;;;;;;;10.70;6.68;;;;;;;22.79;61.39;99782.09;5079116;28;20036;-72
2022/08/09 03:11:00;;;;;;;12.40;6.80;;;;;;;22.92;60.94;99796.19;5078396;28;20392;-72
2022/08/09 03:13:27;;;;;;;22.08;7.05;;;;;;;23.19;59.57;99796.41;5075296;28;20028;-72
2022/08/09 03:15:54;;;;;;;16.63;6.93;;;;;;;22.95;60.19;99797.59;5079553;28;20036;-72
2022/08/09 03:18:21;;;;;;;13.30;7.20;;;;;;;22.82;61.06;99787.03;5076664;28;20032;-72
2022/08/09 03:20:47;;;;;;;10.40;6.72;;;;;;;22.80;60.77;99773.78;5076838;28;20047;-72
2022/08/09 03:23:14;;;;;;;13.70;6.93;;;;;;;22.87;60.45;99785.25;5077631;28;20385;-72
2022/08/09 03:25:41;;;;;;;16.15;7.55;;;;;;;22.81;60.36;99764.63;5078490;28;20037;-72
2022/08/09 03:28:07;;;;;;;15.02;7.28;;;;;;;22.91;60.33;99783.75;5077103;28;20044;-73
2022/08/09 03:30:33;;;;;;;14.75;7.32;;;;;;;23.00;60.00;99777.97;5078316;28;20261;-72
2022/08/09 03:33:07;;;;;;;13.80;7.45;;;;;;;23.10;59.51;99775.44;5078451;28;20035;-72
2022/08/09 03:35:33;;;;;;;10.82;7.80;;;;;;;23.08;59.53;99780.28;5077502;28;20048;-72
2022/08/09 03:37:59;;;;;;;12.38;6.93;;;;;;;23.15;59.47;99779.06;5080650;28;20089;-72
2022/08/09 03:40:24;;;;;;;18.02;7.03;;;;;;;23.31;58.83;99777.44;5081198;28;20342;-72
2022/08/09 03:42:50;;;;;;;11.35;6.40;;;;;;;23.40;58.39;99784.06;5077977;28;20024;-72
2022/08/09 03:45:16;;;;;;;13.45;7.63;;;;;;;23.34;58.63;99789.63;5079294;28;20441;-72
2022/08/09 03:47:42;;;;;;;16.02;7.72;;;;;;;23.27;59.12;99788.97;5078536;28;20035;-72
2022/08/09 03:50:10;;;;;;;18.05;7.88;;;;;;;23.42;58.81;99787.34;5079400;28;20028;-72
2022/08/09 03:52:39;;;;;;;23.15;8.15;;;;;;;23.55;57.94;99788.94;5079249;28;20045;-72
2022/08/09 03:55:08;;;;;;;29.58;9.57;;;;;;;23.54;57.93;99781.88;5078865;28;20093;-72
2022/08/09 03:57:34;;;;;;;16.40;8.23;;;;;;;23.35;58.89;99775.06;5077301;28;20334;-72
2022/08/09 04:00:00;;;;;;;14.82;8.73;;;;;;;23.04;60.06;99771.84;5080785;28;20281;-72
2022/08/09 04:02:28;;;;;;;15.50;7.65;;;;;;;23.25;59.28;99764.91;5079741;28;20037;-72
2022/08/09 04:04:57;;;;;;;13.88;7.35;;;;;;;23.06;59.95;99769.72;5083314;28;20210;-72
2022/08/09 04:07:22;;;;;;;11.68;7.55;;;;;;;22.74;60.76;99773.91;5084396;28;20309;-72
2022/08/09 04:09:48;;;;;;;17.60;8.18;;;;;;;22.54;61.33;99758.13;5085211;28;20284;-72
2022/08/09 04:12:14;;;;;;;12.13;7.30;;;;;;;22.55;61.66;99763.28;5083879;28;20051;-72
2022/08/09 04:14:41;;;;;;;11.68;7.53;;;;;;;22.76;61.29;99758.28;5081358;28;20207;-72
2022/08/09 04:17:07;;;;;;;12.25;7.32;;;;;;;22.66;61.14;99755.41;5084388;28;20040;-72
2022/08/09 04:19:33;;;;;;;14.52;7.65;;;;;;;22.69;61.71;99758.44;5082634;28;20337;-72
2022/08/09 04:21:59;;;;;;;11.10;7.50;;;;;;;22.80;61.39;99757.59;5082570;28;20020;-72
2022/08/09 04:24:25;;;;;;;18.17;7.72;;;;;;;22.83;61.58;99765.22;5079121;28;20032;-72
2022/08/09 04:26:51;;;;;;;13.63;8.00;;;;;;;22.74;62.00;99763.09;5082105;28;20448;-72
2022/08/09 04:29:17;;;;;;;10.35;7.05;;;;;;;22.64;62.88;99761.03;5082846;28;20064;-72
2022/08/09 04:31:42;;;;;;;15.63;7.82;;;;;;;22.74;62.71;99752.31;5083903;28;20092;-72
2022/08/09 04:34:08;;;;;;;14.50;7.25;;;;;;;22.92;62.13;99755.69;5082844;28;20041;-72
2022/08/09 04:36:34;;;;;;;11.82;6.93;;;;;;;23.03;61.52;99750.47;5082099;28;20253;-72
2022/08/09 04:39:02;;;;;;;15.75;7.65;;;;;;;23.20;60.84;99762.94;5084556;28;20043;-72
2022/08/09 04:41:29;;;;;;;16.63;7.88;;;;;;;23.39;60.29;99765.41;5081654;28;20041;-72
2022/08/09 04:43:55;;;;;;;15.00;7.03;;;;;;;23.60;59.35;99762.00;5080203;28;20034;-72
2022/08/09 04:46:21;;;;;;;14.10;6.80;;;;;;;23.66;58.68;99762.88;5082592;28;20063;-72
2022/08/09 04:48:46;;;;;;;17.40;7.78;;;;;;;23.82;57.62;99764.75;5081558;28;20039;-73
2022/08/09 04:51:13;;;;;;;16.42;7.32;;;;;;;23.88;57.94;99758.34;5084608;28;20047;-72
2022/08/09 04:53:38;;;;;;;20.55;7.70;;;;;;;23.86;57.75;99755.91;5083536;28;20113;-72
2022/08/09 04:56:05;;;;;;;13.73;7.03;;;;;;;24.08;57.13;99764.09;5082358;28;20041;-73
2022/08/09 04:58:31;;;;;;;11.68;6.93;;;;;;;24.33;55.82;99770.94;5085333;28;20096;-73
2022/08/09 05:00:57;;;;;;;18.90;8.10;;;;;;;24.45;55.68;99775.16;5083807;28;20043;-72
2022/08/09 05:03:22;;;;;;;12.63;7.18;;;;;;;24.81;54.58;99767.44;5080733;28;20028;-73
2022/08/09 05:05:48;;;;;;;20.92;8.10;;;;;;;25.00;54.75;99781.50;5079682;28;20230;-72
2022/08/09 05:08:14;;;;;;;18.95;7.25;;;;;;;24.93;54.17;99768.09;5083028;28;20043;-73
2022/08/09 05:10:40;;;;;;;16.50;7.47;;;;;;;25.26;54.29;99777.97;5079681;28;20024;-73
2022/08/09 05:13:06;;;;;;;13.82;7.80;;;;;;;25.46;53.27;99771.88;5081783;28;20423;-72
2022/08/09 05:15:31;;;;;;;15.45;6.65;;;;;;;25.54;52.58;99776.84;5079065;28;20040;-73
2022/08/09 05:17:57;;;;;;;16.00;6.13;;;;;;;25.74;51.18;99766.16;5080876;28;20391;-73
2022/08/09 05:20:24;;;;;;;12.73;6.35;;;;;;;26.05;50.24;99775.34;5082804;28;20187;-72
2022/08/09 05:22:52;;;;;;;14.30;6.20;;;;;;;26.18;49.86;99765.91;5081084;28;20055;-72
2022/08/09 05:25:18;;;;;;;11.93;5.78;;;;;;;26.47;48.12;99762.81;5084540;28;20333;-73
2022/08/09 05:27:44;;;;;;;13.20;5.80;;;;;;;26.56;47.49;99774.78;5089434;28;20039;-72
2022/08/09 05:30:10;;;;;;;16.27;6.40;;;;;;;26.24;48.22;99778.44;5090123;28;20024;-72
2022/08/09 05:32:36;;;;;;;10.25;5.97;;;;;;;26.16;48.31;99770.78;5094157;28;20126;-73
2022/08/09 05:35:02;;;;;;;14.63;6.38;;;;;;;26.35;48.32;99768.47;5082314;28;20318;-72
2022/08/09 05:37:28;;;;;;;12.88;6.35;;;;;;;26.42;47.31;99777.19;5081778;28;20102;-72
2022/08/09 05:39:54;;;;;;;36.30;20.60;;;;;;;26.40;47.23;99776.63;5083135;28;20230;-72
2022/08/09 05:42:19;;;;;;;12.63;6.25;;;;;;;26.55;47.18;99775.88;5081309;28;20041;-73
2022/08/09 05:44:45;;;;;;;14.02;6.53;;;;;;;26.74;46.51;99785.19;5079362;28;20254;-72
2022/08/09 05:47:10;;;;;;;14.00;6.35;;;;;;;26.90;46.31;99783.31;5083069;28;20061;-72
2022/08/09 05:49:36;;;;;;;9.85;5.55;;;;;;;27.12;44.76;99772.28;5080004;28;20052;-73
2022/08/09 05:52:02;;;;;;;14.18;6.03;;;;;;;27.14;44.70;99781.78;5080859;28;20225;-72
2022/08/09 05:54:28;;;;;;;10.98;6.32;;;;;;;26.98;45.89;99771.94;5083170;28;20048;-72
2022/08/09 05:56:53;;;;;;;11.52;5.40;;;;;;;27.15;44.34;99771.72;5079855;28;20196;-73
2022/08/09 05:59:20;;;;;;;14.63;6.10;;;;;;;27.50;43.23;99768.22;5081663;28;20027;-73
2022/08/09 06:01:46;;;;;;;11.40;4.75;;;;;;;27.45;42.47;99770.94;5080120;28;20048;-73
2022/08/09 06:04:12;;;;;;;12.02;4.78;;;;;;;27.41;42.20;99759.78;5082548;28;20036;-73
2022/08/09 06:06:38;;;;;;;10.45;4.75;;;;;;;27.66;41.41;99767.13;5080567;28;20078;-72
2022/08/09 06:09:04;;;;;;;9.52;4.72;;;;;;;27.99;40.89;99763.00;5078705;28;20323;-73
2022/08/09 06:11:30;;;;;;;10.23;4.22;;;;;;;28.09;40.34;99765.72;5081975;28;20233;-73
2022/08/09 06:13:55;;;;;;;11.40;4.63;;;;;;;28.27;39.92;99762.44;5081942;28;20103;-73
2022/08/09 06:16:22;;;;;;;6.70;3.90;;;;;;;28.39;38.78;99762.09;5083685;28;20031;-72
2022/08/09 06:18:48;;;;;;;10.98;4.93;;;;;;;28.40;39.09;99762.91;5078717;28;20083;-73
2022/08/09 06:21:14;;;;;;;7.50;4.25;;;;;;;28.37;38.04;99758.03;5081598;28;20044;-73
2022/08/09 06:23:39;;;;;;;8.07;4.15;;;;;;;28.47;38.14;99758.81;5079407;28;20329;-73
2022/08/09 06:26:06;;;;;;;10.65;4.40;;;;;;;28.56;37.95;99764.47;5079770;28;20058;-73
2022/08/09 06:28:31;;;;;;;9.45;4.40;;;;;;;28.33;37.75;99760.50;5077061;28;20028;-73
2022/08/09 06:30:57;;;;;;;11.15;4.35;;;;;;;28.58;37.67;99757.66;5078125;28;20040;-72
2022/08/09 06:33:23;;;;;;;7.95;3.85;;;;;;;28.91;36.62;99752.59;5082272;28;20210;-73
2022/08/09 06:35:48;;;;;;;11.30;4.13;;;;;;;28.96;36.54;99754.47;5081542;28;20246;-73
2022/08/09 06:38:14;;;;;;;8.35;3.88;;;;;;;29.09;36.47;99749.19;5081210;28;20224;-73
2022/08/09 06:40:40;;;;;;;12.13;4.60;;;;;;;29.40;36.06;99749.00;5078613;28;20037;-73
2022/08/09 06:43:05;;;;;;;9.50;4.63;;;;;;;29.58;35.22;99742.03;5078620;28;20359;-73
2022/08/09 06:45:31;;;;;;;14.13;5.65;;;;;;;29.59;34.87;99746.41;5080924;28;20055;-73
2022/08/09 06:47:57;;;;;;;14.70;4.82;;;;;;;29.60;35.09;99750.75;5075392;28;20016;-73
2022/08/09 06:50:22;;;;;;;19.77;5.28;;;;;;;29.92;34.94;99742.78;5077144;28;20044;-73
2022/08/09 06:52:48;;;;;;;14.48;5.53;;;;;;;30.05;34.83;99744.84;5078138;28;20053;-73
2022/08/09 06:55:16;;;;;;;13.80;6.03;;;;;;;30.27;34.42;99746.25;5081156;28;20044;-73
2022/08/09 06:57:42;;;;;;;18.45;7.93;;;;;;;30.37;33.71;99752.41;5080957;28;20079;-73
2022/08/09 07:00:09;;;;;;;20.02;8.52;;;;;;;30.37;33.77;99749.69;5079435;28;20111;-73
2022/08/09 07:02:35;;;;;;;18.67;8.93;;;;;;;30.72;33.34;99742.94;5075782;28;20033;-73
2022/08/09 07:05:01;;;;;;;35.40;11.60;;;;;;;30.96;32.77;99747.53;5080276;28;20107;-73
2022/08/09 07:07:27;;;;;;;22.35;11.68;;;;;;;31.01;32.33;99740.06;5079501;28;20025;-73
2022/08/09 07:09:53;;;;;;;24.60;12.57;;;;;;;31.13;32.69;99751.34;5080647;28;20061;-73
2022/08/09 07:12:18;;;;;;;29.30;14.52;;;;;;;31.53;32.16;99756.50;5078808;28;20054;-73
2022/08/09 07:14:48;;;;;;;26.35;13.10;;;;;;;31.54;32.33;99738.97;5079553;28;20036;-73
2022/08/09 07:17:13;;;;;;;34.22;13.38;;;;;;;31.56;32.02;99739.50;5082647;28;20076;-73
2022/08/09 07:19:39;;;;;;;26.67;14.85;;;;;;;31.20;32.30;99747.47;5080346;28;20054;-73
2022/08/09 07:22:06;;;;;;;26.50;15.23;;;;;;;31.24;31.96;99749.34;5078576;28;20057;-72
2022/08/09 07:24:32;;;;;;;24.05;13.68;;;;;;;31.66;31.76;99740.13;5081860;28;20062;-73
2022/08/09 07:26:59;;;;;;;25.85;12.90;;;;;;;32.06;30.96;99744.03;5079132;28;20056;-73
2022/08/09 07:29:26;;;;;;;19.40;11.10;;;;;;;32.29;29.95;99736.78;5074817;28;20032;-73
2022/08/09 07:31:52;;;;;;;19.60;9.82;;;;;;;32.13;30.06;99748.31;5077870;28;20051;-73
2022/08/09 07:34:17;;;;;;;19.85;9.23;;;;;;;32.08;29.79;99749.22;5080253;28;20064;-73
2022/08/09 07:36:44;;;;;;;17.52;8.13;;;;;;;32.20;30.04;99749.53;5076749;28;20067;-73
2022/08/09 07:39:10;;;;;;;13.40;7.20;;;;;;;32.13;30.37;99743.63;5080527;28;20482;-73
2022/08/09 07:41:35;;;;;;;15.50;6.25;;;;;;;32.56;29.81;99746.91;5078869;28;20029;-73
2022/08/09 07:44:01;;;;;;;10.35;6.45;;;;;;;32.46;29.46;99746.31;5082292;28;20340;-73
2022/08/09 07:46:27;;;;;;;10.63;5.28;;;;;;;32.66;28.24;99743.13;5080412;28;20029;-73
2022/08/09 07:48:53;;;;;;;7.63;5.05;;;;;;;33.08;27.47;99739.16;5079319;28;20036;-73
2022/08/09 07:51:18;;;;;;;12.00;5.22;;;;;;;33.30;27.58;99747.44;5079850;28;20043;-73
2022/08/09 07:53:45;;;;;;;11.40;5.10;;;;;;;33.29;26.46;99747.69;5079334;28;20085;-73
2022/08/09 07:56:10;;;;;;;10.40;5.15;;;;;;;33.17;26.41;99745.50;5080014;28;20040;-73
2022/08/09 07:58:36;;;;;;;10.20;4.45;;;;;;;33.49;26.16;99746.44;5078043;28;20264;-73
2022/08/09 08:01:02;;;;;;;10.27;4.10;;;;;;;33.69;24.93;99745.91;5079473;28;21232;-73
2022/08/09 08:03:28;;;;;;;9.73;4.30;;;;;;;33.81;24.41;99748.06;5078383;28;20036;-73
2022/08/09 08:05:53;;;;;;;9.50;3.60;;;;;;;34.15;24.77;99739.97;5079834;28;20032;-73
2022/08/09 08:08:19;;;;;;;9.77;3.60;;;;;;;34.21;23.52;99740.63;5080064;28;20025;-73
2022/08/09 08:10:44;;;;;;;11.50;3.10;;;;;;;34.53;22.68;99732.03;5078091;28;20028;-73
2022/08/09 08:13:10;;;;;;;7.50;3.10;;;;;;;34.29;23.61;99737.09;5076660;28;20629;-73
2022/08/09 08:15:35;;;;;;;7.93;3.40;;;;;;;34.24;24.57;99727.06;5078392;28;20036;-73
2022/08/09 08:18:01;;;;;;;6.40;3.05;;;;;;;34.33;22.61;99734.56;5078729;28;20036;-73
2022/08/09 08:20:28;;;;;;;11.80;3.72;;;;;;;34.39;23.48;99725.88;5077165;28;20051;-73
2022/08/09 08:22:54;;;;;;;9.50;4.03;;;;;;;34.35;23.11;99724.09;5077024;28;20274;-73
2022/08/09 08:25:20;;;;;;;8.13;3.72;;;;;;;34.76;22.50;99720.91;5079809;28;20047;-73
2022/08/09 08:27:46;;;;;;;8.93;4.07;;;;;;;34.80;21.69;99725.44;5077358;28;20056;-73
2022/08/09 08:30:12;;;;;;;9.43;3.90;;;;;;;34.94;21.57;99721.75;5079044;28;20033;-73
2022/08/09 08:32:39;;;;;;;11.57;3.80;;;;;;;34.95;23.15;99718.66;5077604;28;20032;-73
2022/08/09 08:35:05;;;;;;;9.15;3.20;;;;;;;34.97;21.98;99718.34;5077634;28;20048;-73
2022/08/09 08:37:30;;;;;;;9.75;3.47;;;;;;;35.15;23.41;99722.69;5079269;28;20044;-73
2022/08/09 08:39:56;;;;;;;7.32;3.13;;;;;;;34.76;22.56;99721.72;5080120;28;20338;-73
2022/08/09 08:42:24;;;;;;;4.78;3.10;;;;;;;34.79;22.72;99718.31;5079754;28;20032;-73
2022/08/09 08:44:56;;;;;;;7.45;3.40;;;;;;;34.99;22.58;99716.06;5078921;28;20051;-73
2022/08/09 08:47:26;;;;;;;6.32;3.58;;;;;;;35.27;21.65;99703.56;5076081;28;20211;-73
2022/08/09 08:49:53;;;;;;;6.45;3.83;;;;;;;35.48;21.87;99707.28;5075431;28;20095;-73
2022/08/09 08:52:22;;;;;;;6.78;3.40;;;;;;;35.53;21.52;99695.28;5080993;28;20146;-73
2022/08/09 08:54:48;;;;;;;8.52;3.90;;;;;;;35.65;21.17;99689.91;5080409;28;20033;-73
2022/08/09 08:57:14;;;;;;;4.70;2.78;;;;;;;35.67;21.09;99684.06;5083077;28;20349;-73
2022/08/09 08:59:39;;;;;;;10.25;2.65;;;;;;;35.39;21.80;99683.69;5082307;28;20100;-73
2022/08/09 09:02:07;;;;;;;8.32;3.15;;;;;;;35.49;22.15;99672.31;5081277;28;20037;-73
2022/08/09 09:04:36;;;;;;;8.20;2.90;;;;;;;35.70;21.36;99666.88;5081984;28;20024;-73
2022/08/09 09:07:08;;;;;;;9.55;2.90;;;;;;;35.63;20.99;99666.59;5079964;28;20802;-73
2022/08/09 09:09:37;;;;;;;6.95;3.10;;;;;;;35.33;21.24;99676.69;5083982;28;20055;-73
2022/08/09 09:12:03;;;;;;;8.57;2.92;;;;;;;35.68;20.42;99682.94;5083278;28;20036;-73
2022/08/09 09:14:31;;;;;;;6.63;2.88;;;;;;;35.62;20.58;99663.03;5081186;28;20214;-73
2022/08/09 09:16:59;;;;;;;8.23;2.90;;;;;;;35.68;20.71;99641.59;5084240;28;20036;-73
2022/08/09 09:19:25;;;;;;;4.18;2.55;;;;;;;35.83;19.42;99643.84;5080499;28;20063;-73
2022/08/09 09:22:05;;;;;;;9.23;2.50;;;;;;;35.69;20.75;99651.50;5081477;28;20044;-73
2022/08/09 09:24:34;;;;;;;8.25;2.65;;;;;;;35.58;19.14;99655.75;5086574;28;20020;-73
2022/08/09 09:27:01;;;;;;;8.38;2.40;;;;;;;35.40;19.35;99649.50;5081024;28;20036;-73
2022/08/09 09:29:39;;;;;;;7.20;2.50;;;;;;;35.12;20.32;99666.34;5082104;28;20040;-73
2022/08/09 09:32:06;;;;;;;6.82;2.70;;;;;;;34.79;19.23;99668.00;5082766;28;20047;-73
2022/08/09 09:34:32;;;;;;;9.13;2.70;;;;;;;34.61;20.42;99667.19;5082356;28;20051;-73
2022/08/09 09:36:59;;;;;;;6.35;3.25;;;;;;;34.36;21.05;99668.78;5081330;28;20070;-73
2022/08/09 09:39:28;;;;;;;4.32;2.60;;;;;;;34.18;19.50;99669.84;5080371;28;20035;-73
2022/08/09 09:41:54;;;;;;;5.50;1.88;;;;;;;33.90;19.81;99655.53;5082781;28;20032;-73
2022/08/09 09:44:32;;;;;;;6.45;2.40;;;;;;;33.90;19.19;99653.59;5081606;28;20037;-73
2022/08/09 09:47:15;;;;;;;5.13;1.65;;;;;;;33.83;17.78;99664.25;5081942;28;20109;-73
2022/08/09 09:49:49;;;;;;;10.07;1.77;;;;;;;34.00;17.97;99684.66;5081893;28;20070;-73
2022/08/09 09:52:14;;;;;;;5.57;1.40;;;;;;;34.31;18.88;99657.06;5080322;28;20549;-73
2022/08/09 09:54:42;;;;;;;4.07;1.60;;;;;;;34.20;16.71;99662.88;5064036;28;20033;-73
2022/08/09 09:57:19;;;;;;;7.93;1.67;;;;;;;33.99;17.42;99664.63;5081758;28;20031;-73
2022/08/09 09:59:47;;;;;;;3.78;1.55;;;;;;;34.10;16.38;99660.44;5082503;28;20067;-73
2022/08/09 10:02:13;;;;;;;6.13;1.88;;;;;;;34.04;17.41;99652.66;5081262;28;20050;-73
2022/08/09 10:04:40;;;;;;;3.08;1.70;;;;;;;33.83;17.51;99634.03;5080671;28;20103;-73
2022/08/09 10:07:24;;;;;;;5.32;1.80;;;;;;;33.70;18.06;99656.91;5081684;28;20036;-73
2022/08/09 10:09:54;;;;;;;9.85;1.90;;;;;;;33.83;18.61;99641.47;5082669;28;20032;-73
2022/08/09 10:12:24;;;;;;;8.82;1.80;;;;;;;33.91;18.81;99637.94;5079445;28;20044;-72
2022/08/09 10:14:51;;;;;;;9.40;2.50;;;;;;;33.55;19.14;99643.59;5076048;28;20093;-72
2022/08/09 10:17:18;;;;;;;5.55;2.72;;;;;;;33.23;18.93;99618.03;5080831;28;20134;-73
2022/08/09 10:19:44;;;;;;;5.60;2.53;;;;;;;33.42;19.43;99648.06;5080212;28;20043;-72
2022/08/09 10:22:10;;;;;;;5.15;2.22;;;;;;;33.31;20.25;99649.47;5081551;28;20342;-72
2022/08/09 10:24:35;;;;;;;7.47;2.10;;;;;;;33.11;21.17;99639.78;5080502;28;20036;-73
2022/08/09 10:27:02;;;;;;;4.47;2.13;;;;;;;33.44;21.03;99647.75;5080698;28;20021;-73
2022/08/09 10:29:28;;;;;;;4.70;2.15;;;;;;;33.62;21.23;99652.19;5077718;28;20024;-73
2022/08/09 10:31:54;;;;;;;6.60;2.50;;;;;;;33.48;21.49;99644.06;5081802;28;20273;-73
2022/08/09 10:34:20;;;;;;;5.85;2.78;;;;;;;33.52;21.38;99658.78;5079406;28;20048;-73
2022/08/09 10:36:49;;;;;;;4.65;2.80;;;;;;;33.68;20.87;99650.09;5079792;28;20402;-72
2022/08/09 10:39:17;;;;;;;5.30;2.65;;;;;;;33.85;21.77;99652.94;5081600;28;21139;-72
2022/08/09 10:41:43;;;;;;;6.60;2.60;;;;;;;33.79;21.09;99643.19;5079473;28;20219;-73
2022/08/09 10:44:09;;;;;;;6.15;2.80;;;;;;;33.97;21.64;99644.09;5080345;28;20043;-72
2022/08/09 10:46:59;;;;;;;7.63;2.65;;;;;;;33.88;21.39;99650.38;5081652;28;20044;-73
2022/08/09 10:50:04;;;;;;;5.47;2.08;;;;;;;33.50;20.29;99655.53;5080518;28;20526;-72
2022/08/09 10:52:39;;;;;;;2.60;2.05;;;;;;;33.24;20.60;99641.63;5075417;28;20103;-73
2022/08/09 10:55:26;;;;;;;9.07;2.50;;;;;;;33.47;20.33;99636.13;5079488;28;20113;-73
2022/08/09 10:57:53;;;;;;;11.82;2.42;;;;;;;33.62;21.02;99636.53;5077857;28;20025;-73
2022/08/09 11:00:28;;;;;;;4.78;2.15;;;;;;;33.64;21.07;99634.28;5080915;28;20250;-73
2022/08/09 11:02:54;;;;;;;5.20;2.63;;;;;;;33.75;20.92;99623.00;5079628;28;20021;-73
2022/08/09 11:05:21;;;;;;;10.95;2.38;;;;;;;33.98;22.64;99646.50;5080693;28;20040;-72
2022/08/09 11:07:47;;;;;;;6.07;2.97;;;;;;;33.53;21.63;99645.84;5078799;28;20024;-73
2022/08/09 11:10:14;;;;;;;6.10;3.65;;;;;;;33.27;21.93;99642.94;5080849;28;20259;-73
2022/08/09 11:12:40;;;;;;;6.78;3.08;;;;;;;33.36;21.76;99635.59;5079869;28;20052;-73
2022/08/09 11:15:17;;;;;;;12.13;4.10;;;;;;;33.52;22.19;99644.22;5081500;28;20047;-73
2022/08/09 11:17:48;;;;;;;8.55;3.90;;;;;;;33.23;22.52;99650.16;5080430;28;20322;-72
2022/08/09 11:20:15;;;;;;;8.02;3.78;;;;;;;33.10;23.21;99618.13;5079820;28;20040;-73
2022/08/09 11:22:41;;;;;;;6.95;3.80;;;;;;;33.31;23.20;99630.25;5079187;28;20063;-72
2022/08/09 11:25:10;;;;;;;8.43;4.10;;;;;;;33.30;23.03;99647.84;5078409;28;20029;-73
2022/08/09 11:27:45;;;;;;;7.10;5.00;;;;;;;32.99;22.87;99637.59;5081466;28;20082;-72
2022/08/09 11:30:13;;;;;;;5.32;3.15;;;;;;;32.75;22.86;99628.03;5080396;28;20040;-73